Time;durP1;ratioP1;P1;durP2;ratioP2;P2;SDS_P1;SDS_P2;PMS_P1;PMS_P2;Temp;Humidity;BMP_temperature;BMP_pressure;BME280_temperature;BME280_humidity;BME280_pressure;Samples;Min_cycle;Max_cycle;Signal;HPM_P1;HPM_P2
2022/03/29 00:02:05;;;;;;;130.10;60.72;;;;;;;;;;5073244;28;20070;-64
2022/03/29 00:04:31;;;;;;;130.55;61.70;;;;;;;;;;5055165;28;20058;-64
2022/03/29 00:06:58;;;;;;;133.43;62.13;;;;;;;;;;5073220;28;20490;-64
2022/03/29 00:09:24;;;;;;;131.00;61.42;;;;;;;;;;5055116;28;20035;-63
2022/03/29 00:14:54;;;;;;;135.63;65.30;;;;;;;;;;5072880;28;20030;-64
2022/03/29 00:17:20;;;;;;;123.25;62.63;;;;;;;;;;5055065;28;20499;-65
2022/03/29 00:19:46;;;;;;;114.68;55.60;;;;;;;;;;5054960;28;20030;-64
2022/03/29 00:22:13;;;;;;;130.13;62.28;;;;;;;;;;5073005;28;20029;-64
2022/03/29 00:24:39;;;;;;;133.68;61.80;;;;;;;;;;5072937;28;20036;-64
2022/03/29 00:27:05;;;;;;;114.15;57.00;;;;;;;;;;5072626;28;20447;-65
2022/03/29 00:29:32;;;;;;;114.50;57.60;;;;;;;;;;5072910;28;20021;-64
2022/03/29 00:31:58;;;;;;;97.78;49.00;;;;;;;;;;5072917;28;20039;-63
2022/03/29 00:34:24;;;;;;;96.35;48.08;;;;;;;;;;5054902;28;20103;-63
2022/03/29 00:36:51;;;;;;;96.82;45.65;;;;;;;;;;5072857;28;20121;-64
2022/03/29 00:39:17;;;;;;;106.50;51.00;;;;;;;;;;5072848;28;20029;-64
2022/03/29 00:41:43;;;;;;;95.63;47.83;;;;;;;;;;5072874;28;20139;-64
2022/03/29 00:44:09;;;;;;;100.15;49.88;;;;;;;;;;5072382;28;20558;-65
2022/03/29 00:46:36;;;;;;;94.70;46.95;;;;;;;;;;5054755;28;20119;-64
2022/03/29 00:49:02;;;;;;;88.32;45.75;;;;;;;;;;5072997;28;20025;-65
2022/03/29 00:51:28;;;;;;;76.15;39.47;;;;;;;;;;5072411;28;20426;-64
2022/03/29 00:53:55;;;;;;;73.25;37.92;;;;;;;;;;5057297;28;20037;-66
2022/03/29 00:56:21;;;;;;;68.57;34.35;;;;;;;;;;5076632;28;20094;-63
2022/03/29 00:58:49;;;;;;;60.95;29.52;;;;;;;;;;5076891;28;20020;-64
2022/03/29 01:01:16;;;;;;;62.95;30.80;;;;;;;;;;5076644;28;20028;-64
2022/03/29 01:03:42;;;;;;;67.32;30.30;;;;;;;;;;5058604;28;20032;-63
2022/03/29 01:06:08;;;;;;;56.60;30.00;;;;;;;;;;5076543;28;20025;-64
2022/03/29 01:08:35;;;;;;;62.15;28.63;;;;;;;;;;5058414;28;20025;-64
2022/03/29 01:11:12;;;;;;;57.03;28.02;;;;;;;;;;5058399;28;20056;-64
2022/03/29 01:13:41;;;;;;;67.15;30.27;;;;;;;;;;5076447;28;20526;-63
2022/03/29 01:18:56;;;;;;;72.05;29.67;;;;;;;;;;5076097;28;20233;-64
2022/03/29 01:21:23;;;;;;;65.57;30.10;;;;;;;;;;5076213;28;20487;-64
2022/03/29 01:23:49;;;;;;;61.75;28.10;;;;;;;;;;5058217;28;20055;-64
2022/03/29 01:26:16;;;;;;;65.68;30.77;;;;;;;;;;5076121;28;20056;-64
2022/03/29 01:28:43;;;;;;;62.70;31.13;;;;;;;;;;5058105;28;20035;-64
2022/03/29 01:31:10;;;;;;;63.00;33.28;;;;;;;;;;5076002;28;20036;-63
2022/03/29 01:33:37;;;;;;;65.57;32.17;;;;;;;;;;5058017;28;20381;-64
2022/03/29 01:36:03;;;;;;;59.17;30.70;;;;;;;;;;5058012;28;20031;-63
2022/03/29 01:38:29;;;;;;;68.82;32.97;;;;;;;;;;5057861;28;20016;-64
2022/03/29 01:41:05;;;;;;;62.72;31.65;;;;;;;;;;5057948;28;20087;-63
2022/03/29 01:43:34;;;;;;;65.53;29.85;;;;;;;;;;5075241;28;20527;-64
2022/03/29 01:46:01;;;;;;;60.53;31.08;;;;;;;;;;5075468;28;20024;-63
2022/03/29 01:48:27;;;;;;;71.22;36.13;;;;;;;;;;5075695;28;20029;-64
2022/03/29 01:50:53;;;;;;;70.65;33.78;;;;;;;;;;5057622;28;20032;-64
2022/03/29 01:53:26;;;;;;;66.10;34.38;;;;;;;;;;5075621;28;20176;-63
2022/03/29 01:55:56;;;;;;;74.07;35.63;;;;;;;;;;5075547;28;20089;-63
2022/03/29 01:58:24;;;;;;;73.32;36.42;;;;;;;;;;5075506;28;20032;-64
2022/03/29 02:00:50;;;;;;;63.17;31.77;;;;;;;;;;5075570;28;20051;-64
2022/03/29 02:03:16;;;;;;;70.53;32.65;;;;;;;;;;5057217;28;20029;-63
2022/03/29 02:05:42;;;;;;;72.85;32.55;;;;;;;;;;5057284;28;20032;-63
2022/03/29 02:08:08;;;;;;;71.80;34.08;;;;;;;;;;5075590;28;20033;-64
2022/03/29 02:10:35;;;;;;;69.13;34.63;;;;;;;;;;5075258;28;20240;-63
2022/03/29 02:13:02;;;;;;;70.97;34.95;;;;;;;;;;5075280;28;20036;-63
2022/03/29 02:15:29;;;;;;;74.03;35.30;;;;;;;;;;5075232;28;20354;-64
2022/03/29 02:17:55;;;;;;;71.03;33.25;;;;;;;;;;5075121;28;20039;-64
2022/03/29 02:20:22;;;;;;;68.28;31.98;;;;;;;;;;5075078;28;20424;-64
2022/03/29 02:22:48;;;;;;;65.13;28.88;;;;;;;;;;5075083;28;20029;-64
2022/03/29 02:25:15;;;;;;;59.67;33.17;;;;;;;;;;5056994;28;20119;-64
2022/03/29 02:27:43;;;;;;;62.45;30.08;;;;;;;;;;5075027;28;20033;-63
2022/03/29 02:30:10;;;;;;;62.75;30.35;;;;;;;;;;5074837;28;20032;-63
2022/03/29 02:32:37;;;;;;;59.55;30.95;;;;;;;;;;5074882;28;20408;-64
2022/03/29 02:35:03;;;;;;;60.40;32.67;;;;;;;;;;5074841;28;20105;-63
2022/03/29 02:37:30;;;;;;;85.05;37.28;;;;;;;;;;5074481;28;20432;-63
2022/03/29 02:39:56;;;;;;;80.53;32.63;;;;;;;;;;5074718;28;20457;-63
2022/03/29 02:42:22;;;;;;;74.80;32.90;;;;;;;;;;5074421;28;20025;-64
2022/03/29 02:44:48;;;;;;;73.85;31.98;;;;;;;;;;5074127;28;20079;-65
2022/03/29 02:47:15;;;;;;;74.53;35.00;;;;;;;;;;5074833;28;20024;-64
2022/03/29 02:49:41;;;;;;;66.95;35.78;;;;;;;;;;5056583;28;20402;-64
2022/03/29 02:52:08;;;;;;;78.93;36.75;;;;;;;;;;5074495;28;20472;-65
2022/03/29 02:54:35;;;;;;;81.80;36.38;;;;;;;;;;5074433;28;20020;-66
2022/03/29 02:57:01;;;;;;;85.30;37.10;;;;;;;;;;5074411;28;20021;-65
2022/03/29 02:59:28;;;;;;;84.80;37.65;;;;;;;;;;5074296;28;20029;-66
2022/03/29 03:01:54;;;;;;;73.45;35.83;;;;;;;;;;5056356;28;20037;-65
2022/03/29 03:04:20;;;;;;;87.00;36.47;;;;;;;;;;5074479;28;20499;-65
2022/03/29 03:06:46;;;;;;;83.78;36.45;;;;;;;;;;5074186;28;20491;-65
2022/03/29 03:09:12;;;;;;;81.15;36.97;;;;;;;;;;5074153;28;20453;-64
2022/03/29 03:11:39;;;;;;;67.78;34.25;;;;;;;;;;5074106;28;20152;-65
2022/03/29 03:14:05;;;;;;;131.57;40.45;;;;;;;;;;5074064;28;20047;-65
2022/03/29 03:16:32;;;;;;;89.43;37.03;;;;;;;;;;5073259;28;20065;-65
2022/03/29 03:18:58;;;;;;;80.60;36.70;;;;;;;;;;5073507;28;20028;-65
2022/03/29 03:21:24;;;;;;;81.53;36.33;;;;;;;;;;5074163;28;20380;-65
2022/03/29 03:23:51;;;;;;;82.82;37.13;;;;;;;;;;5073998;28;20499;-65
2022/03/29 03:26:17;;;;;;;132.02;42.25;;;;;;;;;;5073502;28;20475;-65
2022/03/29 03:28:43;;;;;;;143.18;41.10;;;;;;;;;;5073786;28;20027;-66
2022/03/29 03:31:10;;;;;;;103.22;37.75;;;;;;;;;;5073636;28;20377;-65
2022/03/29 03:33:36;;;;;;;76.70;36.28;;;;;;;;;;5073807;28;20477;-66
2022/03/29 03:36:02;;;;;;;90.45;38.65;;;;;;;;;;5055374;28;20025;-67
2022/03/29 03:38:28;;;;;;;90.82;36.67;;;;;;;;;;5055601;28;20028;-67
2022/03/29 03:40:54;;;;;;;91.78;38.17;;;;;;;;;;5073249;28;20039;-67
2022/03/29 03:43:20;;;;;;;97.85;38.42;;;;;;;;;;5073115;28;20052;-67
2022/03/29 03:45:47;;;;;;;94.22;37.17;;;;;;;;;;5055578;28;20119;-66
2022/03/29 03:48:13;;;;;;;72.50;34.20;;;;;;;;;;5073435;28;20017;-66
2022/03/29 03:50:40;;;;;;;77.18;34.13;;;;;;;;;;5073267;28;20431;-65
2022/03/29 03:53:06;;;;;;;62.05;29.02;;;;;;;;;;5073463;28;20031;-65
2022/03/29 03:55:32;;;;;;;63.92;33.25;;;;;;;;;;5073332;28;20078;-66
2022/03/29 03:57:58;;;;;;;79.15;36.08;;;;;;;;;;5073276;28;20031;-68
2022/03/29 04:00:24;;;;;;;128.88;36.58;;;;;;;;;;5073201;28;20030;-65
2022/03/29 04:02:51;;;;;;;103.78;35.05;;;;;;;;;;5073301;28;20094;-66
2022/03/29 04:05:17;;;;;;;111.82;35.25;;;;;;;;;;5073225;28;20035;-65
2022/03/29 04:07:44;;;;;;;103.50;35.20;;;;;;;;;;5055133;28;20032;-66
2022/03/29 04:10:11;;;;;;;71.47;32.00;;;;;;;;;;5055032;28;20059;-68
2022/03/29 04:12:37;;;;;;;73.60;33.20;;;;;;;;;;5073147;28;20374;-66
2022/03/29 04:15:04;;;;;;;79.47;31.85;;;;;;;;;;5073107;28;20029;-66
2022/03/29 04:17:31;;;;;;;76.45;34.17;;;;;;;;;;5055008;28;20032;-65
2022/03/29 04:19:58;;;;;;;87.57;32.22;;;;;;;;;;5072712;28;20428;-67
2022/03/29 04:22:24;;;;;;;74.90;34.33;;;;;;;;;;5055060;28;20047;-66
2022/03/29 04:24:51;;;;;;;81.88;35.42;;;;;;;;;;5072999;28;20036;-65
2022/03/29 04:27:17;;;;;;;76.20;35.03;;;;;;;;;;5072878;28;20028;-65
2022/03/29 04:29:43;;;;;;;90.18;33.45;;;;;;;;;;5054877;28;20029;-64
2022/03/29 04:32:09;;;;;;;77.65;35.15;;;;;;;;;;5072947;28;20039;-67
2022/03/29 04:34:36;;;;;;;92.53;35.88;;;;;;;;;;5054826;28;20032;-63
2022/03/29 04:37:02;;;;;;;107.47;38.60;;;;;;;;;;5054863;28;20032;-64
2022/03/29 04:39:30;;;;;;;92.55;35.47;;;;;;;;;;5072837;28;20058;-64
2022/03/29 04:41:57;;;;;;;160.50;38.15;;;;;;;;;;5072807;28;20029;-64
2022/03/29 04:44:24;;;;;;;127.93;40.47;;;;;;;;;;5072346;28;20049;-64
2022/03/29 04:46:50;;;;;;;124.97;40.90;;;;;;;;;;5072856;28;20035;-64
2022/03/29 04:49:16;;;;;;;123.53;38.88;;;;;;;;;;5054735;28;20020;-64
2022/03/29 04:51:42;;;;;;;136.95;39.38;;;;;;;;;;5054617;28;20032;-64
2022/03/29 04:54:09;;;;;;;116.72;43.00;;;;;;;;;;5072752;28;20021;-64
2022/03/29 04:56:35;;;;;;;106.38;42.80;;;;;;;;;;5072665;28;20030;-64
2022/03/29 04:59:01;;;;;;;87.20;40.75;;;;;;;;;;5072650;28;20024;-64
2022/03/29 05:01:28;;;;;;;84.97;39.05;;;;;;;;;;5072541;28;20465;-66
2022/03/29 05:03:54;;;;;;;93.03;37.15;;;;;;;;;;5072648;28;20028;-65
2022/03/29 05:06:20;;;;;;;140.27;41.13;;;;;;;;;;5072582;28;20461;-65
2022/03/29 05:08:46;;;;;;;92.05;36.35;;;;;;;;;;5072549;28;20462;-66
2022/03/29 05:11:13;;;;;;;113.40;38.92;;;;;;;;;;5072156;28;20380;-65
2022/03/29 05:13:39;;;;;;;90.90;36.33;;;;;;;;;;5072505;28;20060;-65
2022/03/29 05:16:06;;;;;;;103.38;41.20;;;;;;;;;;5072110;28;20377;-65
2022/03/29 05:18:32;;;;;;;100.97;38.35;;;;;;;;;;5072418;28;20036;-65
2022/03/29 05:20:58;;;;;;;98.00;38.05;;;;;;;;;;5072172;28;20032;-66
2022/03/29 05:23:24;;;;;;;82.45;37.88;;;;;;;;;;5054362;28;20029;-65
2022/03/29 05:25:51;;;;;;;180.57;41.35;;;;;;;;;;5054345;28;20119;-64
2022/03/29 05:28:17;;;;;;;105.22;39.15;;;;;;;;;;5072334;28;20479;-65
2022/03/29 05:30:43;;;;;;;110.35;38.58;;;;;;;;;;5072151;28;20032;-64
2022/03/29 05:33:15;;;;;;;130.30;39.42;;;;;;;;;;5072001;28;20086;-66
2022/03/29 05:35:41;;;;;;;118.53;38.85;;;;;;;;;;5072051;28;20025;-65
2022/03/29 05:38:09;;;;;;;148.25;39.60;;;;;;;;;;5072209;28;20038;-65
2022/03/29 05:40:35;;;;;;;108.15;39.45;;;;;;;;;;5075510;28;20485;-64
2022/03/29 05:43:01;;;;;;;135.43;40.13;;;;;;;;;;5060831;28;20054;-65
2022/03/29 05:45:29;;;;;;;109.70;41.13;;;;;;;;;;5096299;28;20024;-65
2022/03/29 05:50:40;;;;;;;115.53;39.25;;;;;;;;;;5095581;28;20503;-64
2022/03/29 05:53:06;;;;;;;103.13;36.78;;;;;;;;;;5077671;28;20056;-64
2022/03/29 05:55:32;;;;;;;134.07;39.60;;;;;;;;;;5095542;28;20059;-65
2022/03/29 05:57:59;;;;;;;134.70;41.95;;;;;;;;;;5095286;28;20032;-64
2022/03/29 06:00:26;;;;;;;111.60;41.92;;;;;;;;;;5095505;28;20032;-64
2022/03/29 06:02:55;;;;;;;138.50;40.83;;;;;;;;;;5095361;28;20020;-64
2022/03/29 06:05:21;;;;;;;121.95;37.13;;;;;;;;;;5077327;28;20032;-64
2022/03/29 06:07:48;;;;;;;165.25;39.17;;;;;;;;;;5095267;28;20387;-65
2022/03/29 06:10:14;;;;;;;136.95;39.40;;;;;;;;;;5095452;28;20028;-65
2022/03/29 06:12:44;;;;;;;118.32;36.22;;;;;;;;;;5095404;28;20031;-65
2022/03/29 06:15:11;;;;;;;125.60;37.28;;;;;;;;;;5093412;28;20040;-65
2022/03/29 06:17:38;;;;;;;157.90;40.58;;;;;;;;;;5076011;28;20036;-64
2022/03/29 06:20:06;;;;;;;116.88;39.65;;;;;;;;;;5075615;28;20028;-65
2022/03/29 06:22:34;;;;;;;111.53;39.80;;;;;;;;;;5076898;28;20032;-64
2022/03/29 06:25:00;;;;;;;99.55;38.67;;;;;;;;;;5076885;28;20472;-64
2022/03/29 06:27:26;;;;;;;93.40;36.78;;;;;;;;;;5095071;28;20479;-64
2022/03/29 06:29:56;;;;;;;82.63;34.45;;;;;;;;;;5095295;28;20025;-65
2022/03/29 06:32:23;;;;;;;71.22;32.85;;;;;;;;;;5095356;28;20089;-65
2022/03/29 06:34:49;;;;;;;86.68;35.63;;;;;;;;;;5095003;28;20091;-65
2022/03/29 06:37:16;;;;;;;94.45;36.50;;;;;;;;;;5095729;28;20012;-65
2022/03/29 06:39:42;;;;;;;84.78;35.25;;;;;;;;;;5095291;28;20018;-69
2022/03/29 06:42:09;;;;;;;74.45;36.17;;;;;;;;;;5095251;28;20032;-65
2022/03/29 06:44:35;;;;;;;77.25;33.00;;;;;;;;;;5094689;28;20059;-64
2022/03/29 06:47:02;;;;;;;74.53;33.40;;;;;;;;;;5076693;28;20063;-66
2022/03/29 06:49:28;;;;;;;71.20;34.63;;;;;;;;;;5094736;28;20021;-66
2022/03/29 06:51:54;;;;;;;65.22;34.75;;;;;;;;;;5075503;28;20464;-66
2022/03/29 06:54:20;;;;;;;75.05;36.00;;;;;;;;;;5076591;28;20039;-65
2022/03/29 06:56:47;;;;;;;75.88;39.03;;;;;;;;;;5076483;28;20353;-67
2022/03/29 06:59:13;;;;;;;81.65;43.17;;;;;;;;;;5094635;28;20028;-68
2022/03/29 07:01:40;;;;;;;94.30;43.00;;;;;;;;;;5094588;28;20028;-68
2022/03/29 07:04:07;;;;;;;85.90;50.08;;;;;;;;;;5076378;28;20482;-67
2022/03/29 07:06:34;;;;;;;80.18;40.47;;;;;;;;;;5094478;28;20499;-65
2022/03/29 07:11:46;;;;;;;68.07;40.65;;;;;;;;;;5073731;28;20499;-66
2022/03/29 07:14:13;;;;;;;79.63;41.28;;;;;;;;;;5072420;28;20028;-69
2022/03/29 07:16:41;;;;;;;74.90;40.80;;;;;;;;;;5072474;28;20028;-66
2022/03/29 07:19:10;;;;;;;86.20;41.13;;;;;;;;;;5073799;28;20028;-65
2022/03/29 07:21:42;;;;;;;66.95;38.20;;;;;;;;;;5073820;28;20032;-67
2022/03/29 07:24:08;;;;;;;;;;;14.10;99.90;;;;;;5074379;28;20029;-68
2022/03/29 07:26:35;;;;;;;61.38;33.53;;;14.30;97.30;;;;;;5073752;28;19908;-70
2022/03/29 07:29:01;;;;;;;59.60;34.22;;;;;;;;;;5072746;28;20101;-71
2022/03/29 07:31:27;;;;;;;58.58;33.42;;;;;;;;;;5093156;28;20117;-69
2022/03/29 07:33:54;;;;;;;67.38;33.13;;;;;;;;;;5075554;28;20036;-69
2022/03/29 07:36:20;;;;;;;60.42;34.38;;;;;;;;;;5093945;28;20027;-70
2022/03/29 07:38:46;;;;;;;59.65;32.50;;;;;;;;;;5093667;28;20111;-69
2022/03/29 07:41:12;;;;;;;52.55;30.92;;;15.50;82.60;;;;;;5093224;28;20430;-67
2022/03/29 07:43:38;;;;;;;66.97;30.13;;;;;;;;;;5075064;28;20053;-69
2022/03/29 07:46:04;;;;;;;51.83;31.00;;;;;;;;;;5093436;28;20022;-70
2022/03/29 07:48:30;;;;;;;47.90;29.17;;;15.60;83.10;;;;;;5093408;28;20020;-69
2022/03/29 07:50:56;;;;;;;57.45;30.98;;;;;;;;;;5093113;28;20051;-72
2022/03/29 07:53:25;;;;;;;58.97;28.48;;;16.20;82.80;;;;;;5074908;28;20085;-71
2022/03/29 07:55:52;;;;;;;54.72;29.30;;;16.50;80.20;;;;;;5093428;28;20526;-70
2022/03/29 07:58:19;;;;;;;47.53;27.50;;;16.70;77.80;;;;;;5093354;28;20144;-70
2022/03/29 08:00:49;;;;;;;54.42;27.48;;;17.00;76.40;;;;;;5075166;28;20028;-70
2022/03/29 08:03:16;;;;;;;56.67;26.50;;;17.20;74.80;;;;;;5092868;28;20047;-70
2022/03/29 08:05:44;;;;;;;52.85;26.08;;;17.40;74.20;;;;;;5093197;28;20031;-69
2022/03/29 08:08:11;;;;;;;44.05;25.25;;;17.50;69.30;;;;;;5093252;28;20103;-69
2022/03/29 08:10:38;;;;;;;43.90;23.27;;;17.70;71.20;;;;;;5093036;28;20020;-70
2022/03/29 08:13:07;;;;;;;40.53;24.00;;;17.90;67.90;;;;;;5093024;28;20039;-68
2022/03/29 08:15:33;;;;;;;39.70;24.42;;;;;;;;;;5093045;28;20016;-70
2022/03/29 08:18:00;;;;;;;37.47;22.60;;;;;;;;;;5093194;28;20032;-68
2022/03/29 08:20:26;;;;;;;43.92;22.70;;;;;;;;;;5093063;28;20028;-70
2022/03/29 08:22:55;;;;;;;32.63;22.83;;;;;;;;;;5093249;28;20372;-69
2022/03/29 08:25:22;;;;;;;34.60;22.00;;;;;;;;;;5074467;28;20730;-70
2022/03/29 08:27:49;;;;;;;36.92;22.10;;;18.10;66.50;;;;;;5074693;28;20456;-67
2022/03/29 08:30:15;;;;;;;37.28;24.20;;;;;;;;;;5092061;28;20534;-66
2022/03/29 08:32:42;;;;;;;33.80;21.30;;;;;;;;;;5091560;28;20024;-68
2022/03/29 08:35:09;;;;;;;32.47;20.65;;;19.00;62.20;;;;;;5091906;28;20012;-71
2022/03/29 08:37:39;;;;;;;40.90;21.50;;;;;;;;;;5074239;28;20824;-71
2022/03/29 08:40:12;;;;;;;36.35;20.65;;;19.30;57.70;;;;;;5092576;28;20409;-68
2022/03/29 08:42:39;;;;;;;41.72;21.27;;;;;;;;;;5092062;28;20024;-67
2022/03/29 08:45:06;;;;;;;60.08;23.05;;;19.50;56.50;;;;;;5092739;28;20020;-68
2022/03/29 08:47:33;;;;;;;35.10;19.25;;;19.80;57.90;;;;;;5074239;28;20030;-68
2022/03/29 08:49:59;;;;;;;30.05;18.92;;;19.80;54.30;;;;;;5092563;28;20020;-69
2022/03/29 08:52:24;;;;;;;40.40;19.95;;;19.90;53.90;;;;;;5092664;28;20119;-69
2022/03/29 08:54:50;;;;;;;39.28;20.75;;;20.00;54.20;;;;;;5092861;28;20028;-69
2022/03/29 08:57:16;;;;;;;35.83;19.02;;;20.00;54.10;;;;;;5092863;28;20028;-68
2022/03/29 08:59:43;;;;;;;38.05;19.33;;;20.10;52.90;;;;;;5092705;28;20036;-68
2022/03/29 09:02:13;;;;;;;37.35;19.63;;;;;;;;;;5074536;28;20360;-68
2022/03/29 09:04:39;;;;;;;29.77;19.27;;;20.20;53.20;;;;;;5092782;28;20020;-68
2022/03/29 09:07:06;;;;;;;30.02;18.23;;;20.60;52.60;;;;;;5074437;28;20020;-68
2022/03/29 09:09:37;;;;;;;46.53;20.05;;;20.60;53.70;;;;;;5092770;28;20041;-68
2022/03/29 09:12:13;;;;;;;29.58;17.88;;;;;;;;;;5074401;28;20028;-68
2022/03/29 09:14:55;;;;;;;40.03;19.75;;;20.50;53.20;;;;;;5094641;28;20032;-68
2022/03/29 09:17:38;;;;;;;31.20;18.65;;;21.00;53.10;;;;;;5078145;28;20028;-69
2022/03/29 09:20:16;;;;;;;32.10;18.35;;;21.10;50.90;;;;;;5096448;28;20062;-69
2022/03/29 09:22:55;;;;;;;35.13;19.05;;;21.10;50.70;;;;;;5096474;28;20039;-67
2022/03/29 09:25:35;;;;;;;37.22;20.00;;;21.20;50.60;;;;;;5096391;28;20058;-68
2022/03/29 09:28:02;;;;;;;43.17;19.30;;;21.40;50.20;;;;;;5096448;28;20085;-69
2022/03/29 09:30:38;;;;;;;37.42;20.60;;;21.60;51.00;;;;;;5096250;28;20020;-68
2022/03/29 09:33:07;;;;;;;36.85;19.52;;;21.70;50.50;;;;;;5077949;28;20035;-68
2022/03/29 09:35:35;;;;;;;33.95;18.65;;;21.80;50.60;;;;;;5096243;28;20031;-68
2022/03/29 09:38:01;;;;;;;49.90;19.27;;;21.80;51.60;;;;;;5096192;28;20040;-69
2022/03/29 09:40:37;;;;;;;35.00;20.75;;;22.00;51.80;;;;;;5096136;28;20027;-68
2022/03/29 09:43:06;;;;;;;39.05;21.00;;;22.10;50.90;;;;;;5095849;28;20083;-69
2022/03/29 09:45:50;;;;;;;36.95;20.17;;;22.10;50.50;;;;;;5095967;28;20120;-68
2022/03/29 09:48:42;;;;;;;30.25;19.98;;;22.00;49.20;;;;;;5095771;28;20028;-68
2022/03/29 09:51:07;;;;;;;;;;;22.30;51.50;;;;;;5078232;28;20061;-67
2022/03/29 09:53:51;;;;;;;33.30;20.55;;;22.10;48.40;;;;;;5077933;28;20272;-69
2022/03/29 09:56:21;;;;;;;39.45;21.92;;;21.90;49.90;;;;;;5115544;28;20552;-70
2022/03/29 09:59:08;;;;;;;33.70;21.20;;;21.80;50.20;;;;;;5097203;28;20039;-67
2022/03/29 10:01:47;;;;;;;63.45;21.55;;;21.80;50.80;;;;;;5088605;28;20066;-68
2022/03/29 10:04:16;;;;;;;38.72;18.92;;;22.20;49.90;;;;;;5067314;28;20020;-68
2022/03/29 10:06:43;;;;;;;38.00;20.02;;;22.50;50.90;;;;;;5067585;28;20372;-67
2022/03/29 10:09:27;;;;;;;39.95;21.02;;;22.70;50.20;;;;;;5084480;28;20020;-68
2022/03/29 10:11:56;;;;;;;27.17;19.65;;;22.90;50.50;;;;;;5072084;28;20380;-72
2022/03/29 10:14:25;;;;;;;42.67;21.98;;;22.70;50.60;;;;;;5095251;28;20375;-74
2022/03/29 10:16:52;;;;;;;46.60;21.23;;;22.80;49.20;;;;;;5094731;28;20024;-65
2022/03/29 10:19:20;;;;;;;32.65;20.67;;;22.90;50.20;;;;;;5103566;28;20046;-67
2022/03/29 10:21:47;;;;;;;33.63;20.70;;;23.10;49.90;;;;;;5115263;28;20112;-67
2022/03/29 10:24:14;;;;;;;34.95;20.58;;;;;;;;;;5115319;28;20030;-66
2022/03/29 10:26:45;;;;;;;31.92;19.45;;;23.00;47.90;;;;;;5115194;28;20039;-69
2022/03/29 10:29:12;;;;;;;38.33;20.73;;;23.10;49.30;;;;;;5115370;28;20023;-65
2022/03/29 10:31:47;;;;;;;29.35;19.88;;;23.10;48.00;;;;;;5096681;28;20446;-67
2022/03/29 10:34:16;;;;;;;34.78;20.98;;;23.30;48.50;;;;;;5113963;28;20054;-68
2022/03/29 10:37:02;;;;;;;30.52;19.52;;;;;;;;;;5092508;28;20078;-69
2022/03/29 10:39:43;;;;;;;37.75;20.15;;;24.00;47.10;;;;;;5094825;28;20024;-66
2022/03/29 10:42:28;;;;;;;32.83;21.02;;;25.50;47.30;;;;;;5094734;28;20039;-69
2022/03/29 10:45:16;;;;;;;34.60;20.05;;;25.50;46.10;;;;;;5094746;28;20051;-69
2022/03/29 10:48:06;;;;;;;34.33;20.20;;;26.10;44.70;;;;;;5076474;28;20073;-70
2022/03/29 10:50:53;;;;;;;35.20;20.90;;;;;;;;;;5094596;28;20028;-75
2022/03/29 10:53:35;;;;;;;38.10;19.95;;;;;;;;;;5094759;28;20108;-68
2022/03/29 10:56:15;;;;;;;30.63;19.85;;;;;;;;;;5094720;28;20031;-68
2022/03/29 10:58:59;;;;;;;32.95;21.60;;;;;;;;;;5094597;28;20475;-68
2022/03/29 11:01:25;;;;;;;35.00;20.73;;;27.50;45.80;;;;;;5094528;28;20031;-69
2022/03/29 11:04:10;;;;;;;36.92;21.48;;;;;;;;;;5094562;28;20111;-68
2022/03/29 11:06:36;;;;;;;30.13;20.02;;;;;;;;;;5094490;28;20032;-68
2022/03/29 11:09:18;;;;;;;40.22;23.90;;;;;;;;;;5094178;28;20418;-68
2022/03/29 11:11:50;;;;;;;30.92;20.08;;;;;;;;;;5094421;28;20115;-68
2022/03/29 11:14:33;;;;;;;32.90;20.52;;;;;;;;;;5094338;28;20033;-67
2022/03/29 11:17:05;;;;;;;31.58;20.65;;;;;;;;;;5094234;28;20116;-69
2022/03/29 11:19:50;;;;;;;28.90;19.58;;;;;;;;;;5090986;28;20021;-67
2022/03/29 11:22:22;;;;;;;31.58;19.50;;;;;;;;;;5084721;28;20028;-68
2022/03/29 11:24:49;;;;;;;36.67;19.33;;;;;;;;;;5073843;28;20074;-67
2022/03/29 11:27:36;;;;;;;25.33;18.60;;;31.90;38.00;;;;;;5072224;28;20116;-68
2022/03/29 11:30:07;;;;;;;31.48;19.02;;;;;;;;;;5072082;28;20119;-71
2022/03/29 11:32:34;;;;;;;26.58;18.98;;;;;;;;;;5073697;28;20036;-70
2022/03/29 11:35:04;;;;;;;29.52;19.48;;;;;;;;;;5072111;28;20063;-71
2022/03/29 11:37:40;;;;;;;32.47;19.50;;;;;;;;;;5071689;28;20107;-70
2022/03/29 11:40:08;;;;;;;30.23;18.67;;;32.40;50.50;;;;;;5086400;28;20107;-72
2022/03/29 11:42:49;;;;;;;25.60;19.25;;;;;;;;;;5093437;28;20028;-67
2022/03/29 11:45:16;;;;;;;27.47;19.80;;;;;;;;;;5075407;28;20055;-71
2022/03/29 11:47:52;;;;;;;28.95;19.35;;;;;;;;;;5093815;28;20294;-71
2022/03/29 11:50:49;;;;;;;33.30;19.73;;;31.80;36.60;;;;;;5075253;28;20028;-68
2022/03/29 11:53:32;;;;;;;29.90;20.13;;;;;;;;;;5073024;28;20090;-69
2022/03/29 11:56:07;;;;;;;33.17;19.27;;;32.30;34.00;;;;;;5093847;28;20463;-70
2022/03/29 11:58:39;;;;;;;25.80;17.67;;;;;;;;;;5093321;28;20093;-68
2022/03/29 12:01:14;;;;;;;25.13;19.10;;;31.80;34.40;;;;;;5075123;28;20038;-70
2022/03/29 12:03:41;;;;;;;26.33;19.52;;;;;;;;;;5075412;28;20459;-68
2022/03/29 12:06:12;;;;;;;28.85;19.15;;;;;;;;;;5075222;28;20068;-68
2022/03/29 12:08:57;;;;;;;30.73;18.63;;;30.90;35.60;;;;;;5093292;28;20019;-68
2022/03/29 12:11:28;;;;;;;28.65;18.50;;;31.20;37.50;;;;;;5074693;28;20363;-70
2022/03/29 12:14:12;;;;;;;31.35;19.70;;;31.10;35.70;;;;;;5075220;28;20032;-70
2022/03/29 12:16:40;;;;;;;28.08;18.77;;;31.20;35.60;;;;;;5074927;28;20032;-72
2022/03/29 12:19:27;;;;;;;37.28;20.58;;;31.10;36.60;;;;;;5075110;28;20032;-68
2022/03/29 12:21:56;;;;;;;28.13;17.95;;;;;;;;;;5074761;28;20042;-68
2022/03/29 12:24:23;;;;;;;32.05;18.75;;;31.30;34.90;;;;;;5093170;28;20024;-66
2022/03/29 12:26:54;;;;;;;59.50;21.60;;;;;;;;;;5093035;28;20028;-71
2022/03/29 12:29:20;;;;;;;;;;;;;;;;;;5093508;28;20028;-70
2022/03/29 12:31:47;;;;;;;26.77;19.00;;;31.60;33.90;;;;;;5092938;28;20283;-71
2022/03/29 12:34:14;;;;;;;26.33;19.52;;;;;;;;;;5075042;28;20028;-71
2022/03/29 12:36:51;;;;;;;32.65;18.63;;;31.40;34.80;;;;;;5076138;28;20052;-69
2022/03/29 12:39:17;;;;;;;35.25;20.27;;;;;;;;;;5074983;28;20024;-69
2022/03/29 12:41:51;;;;;;;36.70;19.35;;;32.50;34.10;;;;;;5092876;28;20349;-70
2022/03/29 12:44:34;;;;;;;28.08;18.85;;;33.20;33.90;;;;;;5093088;28;20135;-70
2022/03/29 12:47:01;;;;;;;27.38;19.45;;;34.10;34.40;;;;;;5092628;28;20103;-72
2022/03/29 12:49:27;;;;;;;28.70;19.05;;;33.30;33.80;;;;;;5078199;28;20020;-72
2022/03/29 12:51:55;;;;;;;28.45;20.42;;;;;;;;;;5078798;28;20032;-70
2022/03/29 12:54:35;;;;;;;26.75;19.50;;;33.00;33.20;;;;;;5078835;28;20028;-70
2022/03/29 12:57:03;;;;;;;24.10;18.67;;;33.90;33.30;;;;;;5078816;28;20385;-68
2022/03/29 12:59:40;;;;;;;27.33;19.58;;;33.50;34.10;;;;;;5096812;28;20422;-70
2022/03/29 13:02:20;;;;;;;29.17;19.70;;;34.20;33.70;;;;;;5096818;28;20039;-68
2022/03/29 13:04:47;;;;;;;32.15;19.15;;;33.80;35.30;;;;;;5096839;28;20480;-68
2022/03/29 13:07:32;;;;;;;30.50;19.23;;;33.30;33.90;;;;;;5078443;28;20379;-69
2022/03/29 13:10:19;;;;;;;28.63;19.77;;;33.40;33.70;;;;;;5096260;28;20032;-69
2022/03/29 13:12:56;;;;;;;31.85;19.80;;;32.60;33.40;;;;;;5096304;28;20036;-71
2022/03/29 13:15:56;;;;;;;26.75;19.73;;;32.50;33.60;;;;;;5077905;28;20020;-70
2022/03/29 13:18:40;;;;;;;26.48;19.77;;;32.20;33.40;;;;;;5096383;28;20380;-69
2022/03/29 13:21:21;;;;;;;29.83;19.83;;;32.10;34.20;;;;;;5077999;28;20058;-70
2022/03/29 13:23:48;;;;;;;23.98;19.55;;;32.70;35.20;;;;;;5096445;28;20024;-70
2022/03/29 13:26:15;;;;;;;30.17;21.02;;;;;;;;;;5078133;28;20024;-69
2022/03/29 13:28:42;;;;;;;30.27;19.30;;;32.20;33.50;;;;;;5096298;28;20024;-70
2022/03/29 13:31:18;;;;;;;27.25;19.50;;;;;;;;;;5095804;28;20024;-69
2022/03/29 13:33:49;;;;;;;29.23;17.88;;;33.40;34.30;;;;;;5096151;28;20042;-67
2022/03/29 13:36:17;;;;;;;29.40;20.08;;;34.20;34.40;;;;;;5078112;28;20024;-68
2022/03/29 13:38:44;;;;;;;30.50;19.38;;;33.40;33.00;;;;;;5077089;28;20483;-70
2022/03/29 13:41:10;;;;;;;35.20;19.45;;;;;;;;;;5096387;28;20031;-71
2022/03/29 13:43:37;;;;;;;27.63;19.25;;;33.40;34.00;;;;;;5095996;28;20051;-69
2022/03/29 13:46:05;;;;;;;27.75;19.17;;;34.40;34.10;;;;;;5093435;28;20479;-69
2022/03/29 13:48:33;;;;;;;30.60;19.20;;;34.90;33.60;;;;;;5077442;28;20032;-69
2022/03/29 13:51:01;;;;;;;27.15;19.48;;;35.30;32.80;;;;;;5095421;28;20032;-69
2022/03/29 13:53:27;;;;;;;26.98;19.13;;;34.30;32.40;;;;;;5095760;28;20109;-68
2022/03/29 13:55:54;;;;;;;26.63;19.05;;;35.00;32.90;;;;;;5077569;28;20061;-70
2022/03/29 13:58:20;;;;;;;23.92;18.83;;;35.60;33.40;;;;;;5077370;28;20046;-70
2022/03/29 14:00:46;;;;;;;27.70;18.83;;;36.00;32.70;;;;;;5091979;28;20024;-69
2022/03/29 14:03:13;;;;;;;33.85;19.80;;;36.10;33.20;;;;;;5110808;28;20027;-69